Husky — WDF2194 — position and weather

sailwx.info

Track history (hours):
 
Tides and Currents Weather Stations Pressure Air Temp Water Temp Dewpoint Dewpoint Depression Visibility Wind Speed Wind Dir Waves Ship Positions

Husky

Owner: Hickey Marine Enterprises, Inc., Vancouver, WA. More information available from US FCC via Universal Licensing System and Coast Guard Vessel Documentation Center.

Last reported at 2017-Nov-19 01:15 UTC. Time now 2017-Nov-19 04:46 UTC.
Position N 46°06' W 122°56'.

Length 13 m; draft 2.1 m.

Type: Tug. MMSI: 2521422.

Date/timePositionNaut miles runAvg speedWind from/ knotsBaromVisibWave heightAir tempDewpointWater temp
2017-Nov-19 01:15N 46°06' W 122°56'0 0.2
2017-Nov-19 01:00N 46°06' W 122°56'0 0.1
2017-Nov-19 00:30N 46°06' W 122°56'0 0.0
2017-Nov-19 00:00N 46°06' W 122°56'0 0.0
2017-Nov-18 23:30N 46°06' W 122°56'0 0.0
2017-Nov-18 23:00N 46°06' W 122°56'0 0.0
2017-Nov-18 22:30N 46°06' W 122°56'0 0.0
2017-Nov-18 00:36N 46°06' W 122°56'0 0.0
2017-Nov-18 00:18N 46°06' W 122°56'0 0.0
2017-Nov-18 00:01N 46°06' W 122°56'0 0.0
2017-Nov-17 23:30N 46°06' W 122°56'0 0.0
2017-Nov-17 23:00N 46°06' W 122°56'0 0.0
2017-Nov-17 22:30N 46°06' W 122°56'0 0.0
2017-Nov-17 22:01N 46°06' W 122°56'0 0.0
2017-Nov-17 21:30N 46°06' W 122°56'0 0.0
2017-Nov-17 21:00N 46°06' W 122°56'0 0.0
2017-Nov-17 20:30N 46°06' W 122°56'0 0.0
2017-Nov-17 20:00N 46°06' W 122°56'0 0.0
2017-Nov-17 19:30N 46°06' W 122°56'0 0.0
2017-Nov-17 19:00N 46°06' W 122°56'0 0.0
2017-Nov-17 18:30N 46°06' W 122°56'0 0.0
2017-Nov-17 18:00N 46°06' W 122°56'0 0.0
2017-Nov-17 17:30N 46°06' W 122°56'0 0.0
2017-Nov-17 17:00N 46°06' W 122°56'0 0.0
2017-Nov-17 16:30N 46°06' W 122°56'0 0.0
2017-Nov-17 16:00N 46°06' W 122°56'0 0.0
2017-Nov-17 15:30N 46°06' W 122°56'0 0.0
2017-Nov-17 14:48N 46°06' W 122°56'0 0.0
2017-Nov-17 00:59N 46°06' W 122°56'1 1.2
2017-Nov-17 00:30N 46°05' W 122°56'0 0.3
2017-Nov-17 00:01N 46°05' W 122°56'0 0.0
2017-Nov-16 23:30N 46°05' W 122°56'0 0.0
2017-Nov-16 23:00N 46°05' W 122°56'0 0.0
2017-Nov-16 22:28N 46°05' W 122°56'0 0.4
2017-Nov-16 22:00N 46°06' W 122°55'2 4.4
2017-Nov-16 21:30N 46°04' W 122°53'3 5.4
2017-Nov-16 21:00N 46°01' W 122°52'2 3.2
2017-Nov-16 20:31N 46°00' W 122°51'0 0.0
2017-Nov-16 20:01N 46°00' W 122°51'0 0.1
2017-Nov-16 19:31N 46°00' W 122°51'0 0.1
2017-Nov-16 19:01N 46°00' W 122°51'0 0.0
2017-Nov-16 18:30N 46°00' W 122°51'0 0.1
2017-Nov-16 18:00N 46°00' W 122°51'0 0.1
2017-Nov-16 17:30N 46°00' W 122°51'0 0.0
2017-Nov-16 17:01N 46°00' W 122°51'0 0.0
2017-Nov-16 16:30N 46°00' W 122°51'0 0.0
2017-Nov-16 16:00N 46°00' W 122°51'0 0.0
2017-Nov-16 15:31N 46°00' W 122°51'0 0.0
2017-Nov-16 15:00N 46°00' W 122°51'0 0.0
2017-Nov-16 00:44N 46°00' W 122°51'0 0.2
2017-Nov-16 00:30N 46°00' W 122°51'1 2.8
2017-Nov-16 00:00N 45°59' W 122°50'3 6.0
2017-Nov-15 23:30N 45°56' W 122°49'3 6.0
2017-Nov-15 23:00N 45°53' W 122°48'3 5.6
2017-Nov-15 22:30N 45°50' W 122°47'3 5.3
2017-Nov-15 22:01N 45°48' W 122°47'3 5.4
2017-Nov-15 21:30N 45°45' W 122°46'3 5.7
2017-Nov-15 21:01N 45°42' W 122°46'3 5.6
2017-Nov-15 20:30N 45°39' W 122°46'1 1.6
2017-Nov-15 20:00N 45°39' W 122°45'0 0.6
2017-Nov-15 19:30N 45°39' W 122°44'2 3.1
2017-Nov-15 19:00N 45°38' W 122°43'0 0.0
2017-Nov-15 18:30N 45°38' W 122°43'0 0.0
2017-Nov-15 18:00N 45°38' W 122°43'0 0.0
2017-Nov-15 17:30N 45°38' W 122°43'0 0.0
2017-Nov-15 17:00N 45°38' W 122°43'0 0.0
2017-Nov-15 16:30N 45°38' W 122°43'0 0.0
2017-Nov-15 16:00N 45°38' W 122°43'0 0.0
2017-Nov-15 01:19N 45°38' W 122°43'0 0.0
2017-Nov-15 01:00N 45°38' W 122°43'0 0.0
2017-Nov-15 00:30N 45°38' W 122°43'0 0.0
2017-Nov-15 00:00N 45°38' W 122°43'0 0.0
2017-Nov-14 23:30N 45°38' W 122°43'0 0.0
2017-Nov-14 23:00N 45°38' W 122°43'0 0.0
2017-Nov-14 22:31N 45°38' W 122°43'0 0.0
2017-Nov-14 22:00N 45°38' W 122°43'0 0.0
2017-Nov-14 21:31N 45°38' W 122°43'0 0.0
2017-Nov-14 21:00N 45°38' W 122°43'0 0.0
2017-Nov-14 20:30N 45°38' W 122°43'0 0.0
2017-Nov-14 20:00N 45°38' W 122°43'0 0.0
2017-Nov-14 19:29N 45°38' W 122°43'0 0.0
2017-Nov-14 19:01N 45°38' W 122°43'0 0.0
2017-Nov-14 18:30N 45°38' W 122°43'0 0.0
2017-Nov-14 18:00N 45°38' W 122°43'0 0.0
2017-Nov-14 17:30N 45°38' W 122°43'0 0.0
2017-Nov-14 17:00N 45°38' W 122°43'1 1.0
2017-Nov-14 16:31N 45°38' W 122°43'1 2.8
2017-Nov-14 16:00N 45°39' W 122°45'0 0.0
2017-Nov-14 15:30N 45°39' W 122°45'0 0.0
2017-Nov-13 23:13N 45°39' W 122°45'0 0.0
2017-Nov-13 23:00N 45°39' W 122°45'0 0.0
2017-Nov-13 22:30N 45°39' W 122°45'0 0.0
2017-Nov-13 22:00N 45°39' W 122°45'  
2017-Nov-11 08:37N 46°06' W 122°57'0 0.0
2017-Nov-11 08:30N 46°06' W 122°57'2 4.6
2017-Nov-11 08:00N 46°08' W 123°00'1 2.1
2017-Nov-11 07:31N 46°08' W 123°01'3 6.1
2017-Nov-11 07:00N 46°07' W 122°58'0 0.6
2017-Nov-11 06:30N 46°06' W 122°57'1 1.2
2017-Nov-11 05:57N 46°06' W 122°57'0 0.1
2017-Nov-11 05:30N 46°06' W 122°56'0 0.0
2017-Nov-11 05:00N 46°06' W 122°56'0 0.0
2017-Nov-11 04:30N 46°06' W 122°56'0 0.0
2017-Nov-11 04:01N 46°06' W 122°56'0 0.1
2017-Nov-11 03:31N 46°06' W 122°57'0 0.1
2017-Nov-11 03:01N 46°06' W 122°56'0 0.0
2017-Nov-11 02:31N 46°06' W 122°56'0 0.0
2017-Nov-11 02:01N 46°06' W 122°56'0 0.0
2017-Nov-11 01:31N 46°06' W 122°56'0 0.1
2017-Nov-11 01:00N 46°06' W 122°57'0 0.1
2017-Nov-11 00:30N 46°06' W 122°57'0 0.0
2017-Nov-11 00:01N 46°06' W 122°57'0 0.0
2017-Nov-10 23:31N 46°06' W 122°57'0 0.0
2017-Nov-10 23:01N 46°06' W 122°57'0 0.0
2017-Nov-10 22:30N 46°06' W 122°57'0 0.1
2017-Nov-10 22:00N 46°06' W 122°57'0 0.0
2017-Nov-10 21:31N 46°06' W 122°57'0 0.0
2017-Nov-10 21:00N 46°06' W 122°57'0 0.0
2017-Nov-10 20:30N 46°06' W 122°57'0 0.0
2017-Nov-10 20:01N 46°06' W 122°57'1 1.3
2017-Nov-10 19:31N 46°06' W 122°57'3 6.2
2017-Nov-10 19:00N 46°08' W 123°01'1 1.1
2017-Nov-10 18:30N 46°08' W 123°02'2 3.6
2017-Nov-10 18:00N 46°08' W 122°59'2 5.0
2017-Nov-10 17:31N 46°06' W 122°57'0 0.1
2017-Nov-10 17:00N 46°06' W 122°57'0 0.0
2017-Nov-10 16:31N 46°06' W 122°57'0 0.1
2017-Nov-10 16:00N 46°06' W 122°57'0 0.0
2017-Nov-10 15:31N 46°06' W 122°57'0 0.0
2017-Nov-10 15:01N 46°06' W 122°57'0 0.0
2017-Nov-10 14:31N 46°06' W 122°57'0 0.0
2017-Nov-10 14:01N 46°06' W 122°57'0 0.0
2017-Nov-10 13:30N 46°06' W 122°57'0 0.0
2017-Nov-10 13:00N 46°06' W 122°57'0 0.0
2017-Nov-10 12:31N 46°06' W 122°57'0 0.1
2017-Nov-10 12:01N 46°06' W 122°57'0 0.0
2017-Nov-10 11:31N 46°06' W 122°57'0 0.0
2017-Nov-10 11:01N 46°06' W 122°57'0 0.0
2017-Nov-10 10:30N 46°06' W 122°57'2 2.5
2017-Nov-10 09:42N 46°07' W 122°59'1 5.4
2017-Nov-10 09:31N 46°08' W 123°00'1 2.6
2017-Nov-10 09:01N 46°08' W 123°02'2 3.7
2017-Nov-10 08:30N 46°08' W 122°59'3 5.0
2017-Nov-10 08:00N 46°06' W 122°56'0 0.0
2017-Nov-10 07:30N 46°06' W 122°56'0 0.0
2017-Nov-10 07:00N 46°06' W 122°56'0 0.0
2017-Nov-10 06:30N 46°06' W 122°56'0 0.1
2017-Nov-10 06:01N 46°06' W 122°57'0 0.0
2017-Nov-10 05:30N 46°06' W 122°57'0 0.0
2017-Nov-10 05:00N 46°06' W 122°57'0 0.0
2017-Nov-10 04:30N 46°06' W 122°57'0 0.0
2017-Nov-10 04:00N 46°06' W 122°57'0 0.1
2017-Nov-10 03:16N 46°06' W 122°56'0 0.0
2017-Nov-10 03:01N 46°06' W 122°56'0 0.0
2017-Nov-10 02:11N 46°06' W 122°56'0 0.0
2017-Nov-10 02:00N 46°06' W 122°56'0 0.0
2017-Nov-10 01:31N 46°06' W 122°56'0 0.1
2017-Nov-10 01:01N 46°06' W 122°57'0 0.0
2017-Nov-10 00:31N 46°06' W 122°57'0 0.2
2017-Nov-10 00:00N 46°06' W 122°57'3 6.2
2017-Nov-09 23:30N 46°08' W 123°00'1 2.3
2017-Nov-09 23:01N 46°09' W 123°02'3 5.6
2017-Nov-09 22:31N 46°07' W 122°58'2 3.1
2017-Nov-09 22:01N 46°06' W 122°57'0 0.0
2017-Nov-09 21:30N 46°06' W 122°57'0 0.1
2017-Nov-09 21:01N 46°06' W 122°56'0 0.0
2017-Nov-09 20:31N 46°06' W 122°56'0 0.0
2017-Nov-09 20:00N 46°06' W 122°56'0 0.0
2017-Nov-09 19:31N 46°06' W 122°56'0 0.0
2017-Nov-09 19:00N 46°06' W 122°56'0 0.0
2017-Nov-09 18:30N 46°06' W 122°56'0 0.0
2017-Nov-09 18:00N 46°06' W 122°56'0 0.0
2017-Nov-09 17:31N 46°06' W 122°56'0 0.0
2017-Nov-09 17:01N 46°06' W 122°56'0 0.0
2017-Nov-09 16:30N 46°06' W 122°56'1 2.0
2017-Nov-09 16:01N 46°06' W 122°58'3 6.9
2017-Nov-09 15:31N 46°09' W 123°02'0 0.2
2017-Nov-09 15:00N 46°08' W 123°02'2 3.3
2017-Nov-09 14:29N 46°07' W 122°60'2 3.4
2017-Nov-09 14:01N 46°06' W 122°58'1 1.9
2017-Nov-09 13:30N 46°06' W 122°57'0 0.0
2017-Nov-09 13:00N 46°06' W 122°57'0 0.0
2017-Nov-09 12:23N 46°06' W 122°57'0 0.0
2017-Nov-09 12:00N 46°06' W 122°57'0 0.0
2017-Nov-09 11:21N 46°06' W 122°57'0 0.0
2017-Nov-09 11:00N 46°06' W 122°57'0 0.0
2017-Nov-09 10:30N 46°06' W 122°57'0 0.0
2017-Nov-09 10:00N 46°06' W 122°57'0 0.0
2017-Nov-09 09:30N 46°06' W 122°57'0 0.0
2017-Nov-09 09:01N 46°06' W 122°57'0 0.0
2017-Nov-09 08:30N 46°06' W 122°57'2 3.7
2017-Nov-09 08:00N 46°07' W 122°59'2 4.8
2017-Nov-09 07:30N 46°08' W 123°02'1 2.4
2017-Nov-09 07:01N 46°08' W 123°00'3 5.9
2017-Nov-09 06:30N 46°06' W 122°57'0 0.1
2017-Nov-09 05:45N 46°06' W 122°57'0 0.0
2017-Nov-09 05:30N 46°06' W 122°57'0 0.0
2017-Nov-09 05:00N 46°06' W 122°57'0 0.0
2017-Nov-09 04:31N 46°06' W 122°57'0 0.7
2017-Nov-09 04:00N 46°06' W 122°56'0 0.2
2017-Nov-09 03:31N 46°06' W 122°56'0 0.0
2017-Nov-09 03:00N 46°06' W 122°56'0 0.1
2017-Nov-09 02:31N 46°06' W 122°56'0 0.0
2017-Nov-09 02:00N 46°06' W 122°56'0 0.0
2017-Nov-09 01:31N 46°06' W 122°56'  
Track history (hours):
 
Tides and Currents Weather Stations Pressure Air Temp Water Temp Dewpoint Dewpoint Depression Visibility Wind Speed Wind Dir Waves Ship Positions

Husky

Owner: Hickey Marine Enterprises, Inc., Vancouver, WA. More information available from US FCC via Universal Licensing System and Coast Guard Vessel Documentation Center.

Last reported at 2017-Nov-19 01:15 UTC. Time now 2017-Nov-19 04:46 UTC.
Position N 46°06' W 122°56'.

Length 13 m; draft 2.1 m.

Type: Tug. MMSI: 2521422.

Date/timePositionNaut miles runAvg speedWind from/ knotsBaromVisibWave heightAir tempDewpointWater temp
2017-Nov-19 01:15N 46°06' W 122°56'0 0.2
2017-Nov-19 01:00N 46°06' W 122°56'0 0.1
2017-Nov-19 00:30N 46°06' W 122°56'0 0.0
2017-Nov-19 00:00N 46°06' W 122°56'0 0.0
2017-Nov-18 23:30N 46°06' W 122°56'0 0.0
2017-Nov-18 23:00N 46°06' W 122°56'0 0.0
2017-Nov-18 22:30N 46°06' W 122°56'0 0.0
2017-Nov-18 00:36N 46°06' W 122°56'0 0.0
2017-Nov-18 00:18N 46°06' W 122°56'0 0.0
2017-Nov-18 00:01N 46°06' W 122°56'0 0.0
2017-Nov-17 23:30N 46°06' W 122°56'0 0.0
2017-Nov-17 23:00N 46°06' W 122°56'0 0.0
2017-Nov-17 22:30N 46°06' W 122°56'0 0.0
2017-Nov-17 22:01N 46°06' W 122°56'0 0.0
2017-Nov-17 21:30N 46°06' W 122°56'0 0.0
2017-Nov-17 21:00N 46°06' W 122°56'0 0.0
2017-Nov-17 20:30N 46°06' W 122°56'0 0.0
2017-Nov-17 20:00N 46°06' W 122°56'0 0.0
2017-Nov-17 19:30N 46°06' W 122°56'0 0.0
2017-Nov-17 19:00N 46°06' W 122°56'0 0.0
2017-Nov-17 18:30N 46°06' W 122°56'0 0.0
2017-Nov-17 18:00N 46°06' W 122°56'0 0.0
2017-Nov-17 17:30N 46°06' W 122°56'0 0.0
2017-Nov-17 17:00N 46°06' W 122°56'0 0.0
2017-Nov-17 16:30N 46°06' W 122°56'0 0.0
2017-Nov-17 16:00N 46°06' W 122°56'0 0.0
2017-Nov-17 15:30N 46°06' W 122°56'0 0.0
2017-Nov-17 14:48N 46°06' W 122°56'0 0.0
2017-Nov-17 00:59N 46°06' W 122°56'1 1.2
2017-Nov-17 00:30N 46°05' W 122°56'0 0.3
2017-Nov-17 00:01N 46°05' W 122°56'0 0.0
2017-Nov-16 23:30N 46°05' W 122°56'0 0.0
2017-Nov-16 23:00N 46°05' W 122°56'0 0.0
2017-Nov-16 22:28N 46°05' W 122°56'0 0.4
2017-Nov-16 22:00N 46°06' W 122°55'2 4.4
2017-Nov-16 21:30N 46°04' W 122°53'3 5.4
2017-Nov-16 21:00N 46°01' W 122°52'2 3.2
2017-Nov-16 20:31N 46°00' W 122°51'0 0.0
2017-Nov-16 20:01N 46°00' W 122°51'0 0.1
2017-Nov-16 19:31N 46°00' W 122°51'0 0.1
2017-Nov-16 19:01N 46°00' W 122°51'0 0.0
2017-Nov-16 18:30N 46°00' W 122°51'0 0.1
2017-Nov-16 18:00N 46°00' W 122°51'0 0.1
2017-Nov-16 17:30N 46°00' W 122°51'0 0.0
2017-Nov-16 17:01N 46°00' W 122°51'0 0.0
2017-Nov-16 16:30N 46°00' W 122°51'0 0.0
2017-Nov-16 16:00N 46°00' W 122°51'0 0.0
2017-Nov-16 15:31N 46°00' W 122°51'0 0.0
2017-Nov-16 15:00N 46°00' W 122°51'0 0.0
2017-Nov-16 00:44N 46°00' W 122°51'0 0.2
2017-Nov-16 00:30N 46°00' W 122°51'1 2.8
2017-Nov-16 00:00N 45°59' W 122°50'3 6.0
2017-Nov-15 23:30N 45°56' W 122°49'3 6.0
2017-Nov-15 23:00N 45°53' W 122°48'3 5.6
2017-Nov-15 22:30N 45°50' W 122°47'3 5.3
2017-Nov-15 22:01N 45°48' W 122°47'3 5.4
2017-Nov-15 21:30N 45°45' W 122°46'3 5.7
2017-Nov-15 21:01N 45°42' W 122°46'3 5.6
2017-Nov-15 20:30N 45°39' W 122°46'1 1.6
2017-Nov-15 20:00N 45°39' W 122°45'0 0.6
2017-Nov-15 19:30N 45°39' W 122°44'2 3.1
2017-Nov-15 19:00N 45°38' W 122°43'0 0.0
2017-Nov-15 18:30N 45°38' W 122°43'0 0.0
2017-Nov-15 18:00N 45°38' W 122°43'0 0.0
2017-Nov-15 17:30N 45°38' W 122°43'0 0.0
2017-Nov-15 17:00N 45°38' W 122°43'0 0.0
2017-Nov-15 16:30N 45°38' W 122°43'0 0.0
2017-Nov-15 16:00N 45°38' W 122°43'0 0.0
2017-Nov-15 01:19N 45°38' W 122°43'0 0.0
2017-Nov-15 01:00N 45°38' W 122°43'0 0.0
2017-Nov-15 00:30N 45°38' W 122°43'0 0.0
2017-Nov-15 00:00N 45°38' W 122°43'0 0.0
2017-Nov-14 23:30N 45°38' W 122°43'0 0.0
2017-Nov-14 23:00N 45°38' W 122°43'0 0.0
2017-Nov-14 22:31N 45°38' W 122°43'0 0.0
2017-Nov-14 22:00N 45°38' W 122°43'0 0.0
2017-Nov-14 21:31N 45°38' W 122°43'0 0.0
2017-Nov-14 21:00N 45°38' W 122°43'0 0.0
2017-Nov-14 20:30N 45°38' W 122°43'0 0.0
2017-Nov-14 20:00N 45°38' W 122°43'0 0.0
2017-Nov-14 19:29N 45°38' W 122°43'0 0.0
2017-Nov-14 19:01N 45°38' W 122°43'0 0.0
2017-Nov-14 18:30N 45°38' W 122°43'0 0.0
2017-Nov-14 18:00N 45°38' W 122°43'0 0.0
2017-Nov-14 17:30N 45°38' W 122°43'0 0.0
2017-Nov-14 17:00N 45°38' W 122°43'1 1.0
2017-Nov-14 16:31N 45°38' W 122°43'1 2.8
2017-Nov-14 16:00N 45°39' W 122°45'0 0.0
2017-Nov-14 15:30N 45°39' W 122°45'0 0.0
2017-Nov-13 23:13N 45°39' W 122°45'0 0.0
2017-Nov-13 23:00N 45°39' W 122°45'0 0.0
2017-Nov-13 22:30N 45°39' W 122°45'0 0.0
2017-Nov-13 22:00N 45°39' W 122°45'  
2017-Nov-11 08:37N 46°06' W 122°57'0 0.0
2017-Nov-11 08:30N 46°06' W 122°57'2 4.6
2017-Nov-11 08:00N 46°08' W 123°00'1 2.1
2017-Nov-11 07:31N 46°08' W 123°01'3 6.1
2017-Nov-11 07:00N 46°07' W 122°58'0 0.6
2017-Nov-11 06:30N 46°06' W 122°57'1 1.2
2017-Nov-11 05:57N 46°06' W 122°57'0 0.1
2017-Nov-11 05:30N 46°06' W 122°56'0 0.0
2017-Nov-11 05:00N 46°06' W 122°56'0 0.0
2017-Nov-11 04:30N 46°06' W 122°56'0 0.0
2017-Nov-11 04:01N 46°06' W 122°56'0 0.1
2017-Nov-11 03:31N 46°06' W 122°57'0 0.1
2017-Nov-11 03:01N 46°06' W 122°56'0 0.0
2017-Nov-11 02:31N 46°06' W 122°56'0 0.0
2017-Nov-11 02:01N 46°06' W 122°56'0 0.0
2017-Nov-11 01:31N 46°06' W 122°56'0 0.1
2017-Nov-11 01:00N 46°06' W 122°57'0 0.1
2017-Nov-11 00:30N 46°06' W 122°57'0 0.0
2017-Nov-11 00:01N 46°06' W 122°57'0 0.0
2017-Nov-10 23:31N 46°06' W 122°57'0 0.0
2017-Nov-10 23:01N 46°06' W 122°57'0 0.0
2017-Nov-10 22:30N 46°06' W 122°57'0 0.1
2017-Nov-10 22:00N 46°06' W 122°57'0 0.0
2017-Nov-10 21:31N 46°06' W 122°57'0 0.0
2017-Nov-10 21:00N 46°06' W 122°57'0 0.0
2017-Nov-10 20:30N 46°06' W 122°57'0 0.0
2017-Nov-10 20:01N 46°06' W 122°57'1 1.3
2017-Nov-10 19:31N 46°06' W 122°57'3 6.2
2017-Nov-10 19:00N 46°08' W 123°01'1 1.1
2017-Nov-10 18:30N 46°08' W 123°02'2 3.6
2017-Nov-10 18:00N 46°08' W 122°59'2 5.0
2017-Nov-10 17:31N 46°06' W 122°57'0 0.1
2017-Nov-10 17:00N 46°06' W 122°57'0 0.0
2017-Nov-10 16:31N 46°06' W 122°57'0 0.1
2017-Nov-10 16:00N 46°06' W 122°57'0 0.0
2017-Nov-10 15:31N 46°06' W 122°57'0 0.0
2017-Nov-10 15:01N 46°06' W 122°57'0 0.0
2017-Nov-10 14:31N 46°06' W 122°57'0 0.0
2017-Nov-10 14:01N 46°06' W 122°57'0 0.0
2017-Nov-10 13:30N 46°06' W 122°57'0 0.0
2017-Nov-10 13:00N 46°06' W 122°57'0 0.0
2017-Nov-10 12:31N 46°06' W 122°57'0 0.1
2017-Nov-10 12:01N 46°06' W 122°57'0 0.0
2017-Nov-10 11:31N 46°06' W 122°57'0 0.0
2017-Nov-10 11:01N 46°06' W 122°57'0 0.0
2017-Nov-10 10:30N 46°06' W 122°57'2 2.5
2017-Nov-10 09:42N 46°07' W 122°59'1 5.4
2017-Nov-10 09:31N 46°08' W 123°00'1 2.6
2017-Nov-10 09:01N 46°08' W 123°02'2 3.7
2017-Nov-10 08:30N 46°08' W 122°59'3 5.0
2017-Nov-10 08:00N 46°06' W 122°56'0 0.0
2017-Nov-10 07:30N 46°06' W 122°56'0 0.0
2017-Nov-10 07:00N 46°06' W 122°56'0 0.0
2017-Nov-10 06:30N 46°06' W 122°56'0 0.1
2017-Nov-10 06:01N 46°06' W 122°57'0 0.0
2017-Nov-10 05:30N 46°06' W 122°57'0 0.0
2017-Nov-10 05:00N 46°06' W 122°57'0 0.0
2017-Nov-10 04:30N 46°06' W 122°57'0 0.0
2017-Nov-10 04:00N 46°06' W 122°57'0 0.1
2017-Nov-10 03:16N 46°06' W 122°56'0 0.0
2017-Nov-10 03:01N 46°06' W 122°56'0 0.0
2017-Nov-10 02:11N 46°06' W 122°56'0 0.0
2017-Nov-10 02:00N 46°06' W 122°56'0 0.0
2017-Nov-10 01:31N 46°06' W 122°56'0 0.1
2017-Nov-10 01:01N 46°06' W 122°57'0 0.0
2017-Nov-10 00:31N 46°06' W 122°57'0 0.2
2017-Nov-10 00:00N 46°06' W 122°57'3 6.2
2017-Nov-09 23:30N 46°08' W 123°00'1 2.3
2017-Nov-09 23:01N 46°09' W 123°02'3 5.6
2017-Nov-09 22:31N 46°07' W 122°58'2 3.1
2017-Nov-09 22:01N 46°06' W 122°57'0 0.0
2017-Nov-09 21:30N 46°06' W 122°57'0 0.1
2017-Nov-09 21:01N 46°06' W 122°56'0 0.0
2017-Nov-09 20:31N 46°06' W 122°56'0 0.0
2017-Nov-09 20:00N 46°06' W 122°56'0 0.0
2017-Nov-09 19:31N 46°06' W 122°56'0 0.0
2017-Nov-09 19:00N 46°06' W 122°56'0 0.0
2017-Nov-09 18:30N 46°06' W 122°56'0 0.0
2017-Nov-09 18:00N 46°06' W 122°56'0 0.0
2017-Nov-09 17:31N 46°06' W 122°56'0 0.0
2017-Nov-09 17:01N 46°06' W 122°56'0 0.0
2017-Nov-09 16:30N 46°06' W 122°56'1 2.0
2017-Nov-09 16:01N 46°06' W 122°58'3 6.9
2017-Nov-09 15:31N 46°09' W 123°02'0 0.2
2017-Nov-09 15:00N 46°08' W 123°02'2 3.3
2017-Nov-09 14:29N 46°07' W 122°60'2 3.4
2017-Nov-09 14:01N 46°06' W 122°58'1 1.9
2017-Nov-09 13:30N 46°06' W 122°57'0 0.0
2017-Nov-09 13:00N 46°06' W 122°57'0 0.0
2017-Nov-09 12:23N 46°06' W 122°57'0 0.0
2017-Nov-09 12:00N 46°06' W 122°57'0 0.0
2017-Nov-09 11:21N 46°06' W 122°57'0 0.0
2017-Nov-09 11:00N 46°06' W 122°57'0 0.0
2017-Nov-09 10:30N 46°06' W 122°57'0 0.0
2017-Nov-09 10:00N 46°06' W 122°57'0 0.0
2017-Nov-09 09:30N 46°06' W 122°57'0 0.0
2017-Nov-09 09:01N 46°06' W 122°57'0 0.0
2017-Nov-09 08:30N 46°06' W 122°57'2 3.7
2017-Nov-09 08:00N 46°07' W 122°59'2 4.8
2017-Nov-09 07:30N 46°08' W 123°02'1 2.4
2017-Nov-09 07:01N 46°08' W 123°00'3 5.9
2017-Nov-09 06:30N 46°06' W 122°57'0 0.1
2017-Nov-09 05:45N 46°06' W 122°57'0 0.0
2017-Nov-09 05:30N 46°06' W 122°57'0 0.0
2017-Nov-09 05:00N 46°06' W 122°57'0 0.0
2017-Nov-09 04:31N 46°06' W 122°57'0 0.7
2017-Nov-09 04:00N 46°06' W 122°56'0 0.2
2017-Nov-09 03:31N 46°06' W 122°56'0 0.0
2017-Nov-09 03:00N 46°06' W 122°56'0 0.1
2017-Nov-09 02:31N 46°06' W 122°56'0 0.0
2017-Nov-09 02:00N 46°06' W 122°56'0 0.0
2017-Nov-09 01:31N 46°06' W 122°56'  

Dump ship's entire track history